Time;durP1;ratioP1;P1;durP2;ratioP2;P2;SDS_P1;SDS_P2;PMS_P1;PMS_P2;Temp;Humidity;BMP_temperature;BMP_pressure;BME280_temperature;BME280_humidity;BME280_pressure;Samples;Min_cycle;Max_cycle;Signal;HPM_P1;HPM_P2
2022/07/27 00:00:58;;;;;;;;;;;;;;;30.61;48.45;98220.47;2076768;28;19941;-53
2022/07/27 00:01:59;;;;;;;;;;;;;;;30.61;48.46;98229.50;2079358;28;20009;-53
2022/07/27 00:03:00;;;;;;;;;;;;;;;30.61;48.46;98221.28;2071469;28;19937;-50
2022/07/27 00:04:01;;;;;;;;;;;;;;;30.61;48.58;98223.22;2078480;28;21055;-53
2022/07/27 00:05:03;;;;;;;;;;;;;;;30.61;48.54;98212.25;2077305;28;19929;-53
2022/07/27 00:06:03;;;;;;;;;;;;;;;30.60;48.30;98214.19;2080140;28;21646;-54
2022/07/27 00:07:05;;;;;;;;;;;;;;;30.60;48.27;98205.97;2069593;28;20018;-51
2022/07/27 00:08:05;;;;;;;;;;;;;;;30.60;48.54;98207.91;2075774;28;19928;-54
2022/07/27 00:09:07;;;;;;;;;;;;;;;30.61;48.39;98213.06;2077447;28;19924;-51
2022/07/27 00:10:08;;;;;;;;;;;;;;;30.60;48.49;98203.25;2077986;28;19940;-53
2022/07/27 00:11:09;;;;;;;;;;;;;;;30.61;48.40;98207.59;2075351;28;19929;-52
2022/07/27 00:12:12;;;;;;;;;;;;;;;30.61;48.58;98209.53;2076166;28;19928;-53
2022/07/27 00:13:13;;;;;;;;;;;;;;;30.61;48.40;98209.53;2072916;28;19925;-53
2022/07/27 00:14:14;;;;;;;;;;;;;;;30.60;48.20;98203.25;2080299;28;19939;-53
2022/07/27 00:15:15;;;;;;;;;;;;;;;30.60;48.46;98203.25;2077123;28;19932;-54
2022/07/27 00:16:16;;;;;;;;;;;;;;;30.61;48.41;98204.06;2080738;28;19931;-53
2022/07/27 00:17:22;;;;;;;;;;;;;;;30.61;48.25;98209.53;2078700;28;20533;-53
2022/07/27 00:18:24;;;;;;;;;;;;;;;30.59;48.22;98207.09;2079235;28;19929;-54
2022/07/27 00:19:24;;;;;;;;;;;;;;;30.60;48.48;98213.38;2073445;28;20405;-54
2022/07/27 00:20:26;;;;;;;;;;;;;;;30.61;48.25;98204.06;2078138;28;19933;-55
2022/07/27 00:21:26;;;;;;;;;;;;;;;30.59;48.50;98201.63;2074327;28;19937;-51
2022/07/27 00:22:28;;;;;;;;;;;;;;;30.60;48.11;98199.69;2078478;28;19933;-52
2022/07/27 00:23:29;;;;;;;;;;;;;;;30.59;48.30;98201.63;2077659;28;19925;-53
2022/07/27 00:24:30;;;;;;;;;;;;;;;30.59;48.34;98192.56;2077161;28;20327;-54
2022/07/27 00:25:31;;;;;;;;;;;;;;;30.60;48.30;98194.22;2077958;28;19944;-51
2022/07/27 00:26:32;;;;;;;;;;;;;;;30.59;48.42;98189.84;2079788;28;19933;-50
2022/07/27 00:27:34;;;;;;;;;;;;;;;30.59;48.16;98184.38;2076419;28;19928;-51
2022/07/27 00:28:36;;;;;;;;;;;;;;;30.59;48.16;98187.09;2077693;28;19928;-52
2022/07/27 00:29:36;;;;;;;;;;;;;;;30.59;48.17;98184.38;2079333;28;19929;-53
2022/07/27 00:30:38;;;;;;;;;;;;;;;30.59;48.16;98187.09;2073947;28;19933;-51
2022/07/27 00:31:39;;;;;;;;;;;;;;;30.60;48.17;98183.28;2079406;28;19929;-51
2022/07/27 00:32:40;;;;;;;;;;;;;;;30.57;48.30;98181.13;2077425;28;20707;-54
2022/07/27 00:33:42;;;;;;;;;;;;;;;30.59;48.12;98184.38;2080591;28;19931;-51
2022/07/27 00:34:42;;;;;;;;;;;;;;;30.58;48.06;98183.56;2076358;28;19932;-52
2022/07/27 00:35:44;;;;;;;;;;;;;;;30.59;48.14;98179.72;2081975;28;20293;-53
2022/07/27 00:36:44;;;;;;;;;;;;;;;30.58;48.04;98177.28;2081537;28;21164;-53
2022/07/27 00:37:46;;;;;;;;;;;;;;;30.59;48.20;98173.41;2082816;28;19932;-53
2022/07/27 00:38:47;;;;;;;;;;;;;;;30.58;48.13;98175.34;2077513;28;19928;-51
2022/07/27 00:39:48;;;;;;;;;;;;;;;30.59;48.13;98173.41;2078475;28;19935;-52
2022/07/27 00:40:49;;;;;;;;;;;;;;;30.59;48.22;98173.41;2080542;28;19929;-53
2022/07/27 00:41:50;;;;;;;;;;;;;;;30.60;47.99;98177.81;2075078;28;19924;-53
2022/07/27 00:42:53;;;;;;;;;;;;;;;30.60;48.12;98177.81;2074749;28;20633;-51
2022/07/27 00:43:56;;;;;;;;;;;;;;;30.58;48.21;98172.59;2081464;28;20379;-50
2022/07/27 00:44:56;;;;;;;;;;;;;;;30.58;48.04;98171.81;2080172;28;19929;-52
2022/07/27 00:45:58;;;;;;;;;;;;;;;30.58;48.22;98172.59;2082223;28;20056;-52
2022/07/27 00:46:58;;;;;;;;;;;;;;;30.58;48.09;98169.06;2076557;28;19935;-52
2022/07/27 00:48:00;;;;;;;;;;;;;;;30.58;48.09;98180.81;2080302;28;20314;-53
2022/07/27 00:49:01;;;;;;;;;;;;;;;30.58;48.40;98189.03;2077264;28;19932;-53
2022/07/27 00:50:02;;;;;;;;;;;;;;;30.58;48.29;98182.75;2074764;28;21165;-51
2022/07/27 00:51:03;;;;;;;;;;;;;;;30.57;48.24;98183.88;2076058;28;19925;-54
2022/07/27 00:52:05;;;;;;;;;;;;;;;30.57;48.09;98181.13;2077611;28;20261;-53
2022/07/27 00:53:06;;;;;;;;;;;;;;;30.57;48.21;98178.41;2077654;28;19935;-54
2022/07/27 00:54:08;;;;;;;;;;;;;;;30.56;48.14;98188.50;2075874;28;19979;-51
2022/07/27 00:55:08;;;;;;;;;;;;;;;30.56;48.06;98185.75;2074562;28;20166;-52
2022/07/27 00:56:10;;;;;;;;;;;;;;;30.56;48.16;98190.44;2073461;28;19925;-52
2022/07/27 00:57:11;;;;;;;;;;;;;;;30.55;48.30;98189.63;2074018;28;21524;-52
2022/07/27 00:58:14;;;;;;;;;;;;;;;30.56;48.37;98185.75;2074728;28;19929;-53
2022/07/27 00:59:15;;;;;;;;;;;;;;;30.57;48.24;98189.34;2078309;28;19933;-53
2022/07/27 01:00:17;;;;;;;;;;;;;;;30.55;48.22;98186.06;2079433;28;19925;-50
2022/07/27 01:01:18;;;;;;;;;;;;;;;30.56;48.13;98195.91;2074685;28;19952;-55
2022/07/27 01:02:21;;;;;;;;;;;;;;;30.56;48.17;98202.19;2076252;28;20450;-54
2022/07/27 01:03:21;;;;;;;;;;;;;;;30.56;48.27;98207.66;2073865;28;19929;-53
2022/07/27 01:04:23;;;;;;;;;;;;;;;30.56;48.14;98201.38;2077018;28;19934;-55
2022/07/27 01:05:23;;;;;;;;;;;;;;;30.56;48.23;98206.84;2076990;28;20963;-53
2022/07/27 01:06:25;;;;;;;;;;;;;;;30.56;48.37;98204.13;2077489;28;20051;-52
2022/07/27 01:07:26;;;;;;;;;;;;;;;30.56;48.08;98207.66;2080572;28;20206;-50
2022/07/27 01:08:28;;;;;;;;;;;;;;;30.55;48.11;98205.22;2081041;28;19939;-52
2022/07/27 01:10:48;;;;;;;;;;;;;;;30.55;48.15;98205.22;2078364;28;19932;-52
2022/07/27 01:11:49;;;;;;;;;;;;;;;30.55;48.17;98206.03;2081044;28;19928;-54
2022/07/27 01:12:50;;;;;;;;;;;;;;;30.56;48.11;98212.31;2080453;28;19929;-54
2022/07/27 01:13:52;;;;;;;;;;;;;;;30.56;48.24;98209.59;2081721;28;19925;-52
2022/07/27 01:14:55;;;;;;;;;;;;;;;30.55;48.10;98205.22;2076732;28;19935;-52
2022/07/27 01:15:56;;;;;;;;;;;;;;;30.55;48.16;98210.72;2074001;28;20043;-53
2022/07/27 01:16:58;;;;;;;;;;;;;;;30.55;48.15;98210.72;2078771;28;19936;-54
2022/07/27 01:17:58;;;;;;;;;;;;;;;30.55;48.31;98202.50;2081101;28;19936;-53
2022/07/27 01:19:00;;;;;;;;;;;;;;;30.54;48.31;98209.09;2078869;28;19963;-53
2022/07/27 01:20:00;;;;;;;;;;;;;;;30.55;48.17;98207.97;2075083;28;22366;-53
2022/07/27 01:21:03;;;;;;;;;;;;;;;30.54;48.08;98207.16;2075497;28;19939;-52
2022/07/27 01:22:05;;;;;;;;;;;;;;;30.53;48.39;98204.69;2074431;28;20848;-53
2022/07/27 01:23:07;;;;;;;;;;;;;;;30.54;48.16;98200.88;2076431;28;21332;-50
2022/07/27 01:24:08;;;;;;;;;;;;;;;30.53;48.06;98207.44;2078224;28;20598;-53
2022/07/27 01:25:10;;;;;;;;;;;;;;;30.54;48.15;98203.63;2078617;28;19940;-51
2022/07/27 01:26:10;;;;;;;;;;;;;;;30.53;48.17;98208.25;2076282;28;20023;-54
2022/07/27 01:27:12;;;;;;;;;;;;;;;30.53;48.13;98201.97;2072948;28;19932;-53
2022/07/27 01:28:12;;;;;;;;;;;;;;;30.53;48.06;98201.97;2076839;28;20542;-54
2022/07/27 01:29:14;;;;;;;;;;;;;;;30.53;48.04;98201.97;2074963;28;19964;-53
2022/07/27 01:30:26;;;;;;;;;;;;;;;30.51;48.21;98205.00;2076686;28;20402;-52
2022/07/27 01:31:28;;;;;;;;;;;;;;;30.52;48.09;98203.09;2081691;28;19932;-53
2022/07/27 01:32:28;;;;;;;;;;;;;;;30.53;48.01;98199.22;2074182;28;19933;-53
2022/07/27 01:33:30;;;;;;;;;;;;;;;30.52;47.91;98195.69;2074552;28;20563;-52
2022/07/27 01:34:32;;;;;;;;;;;;;;;30.52;47.98;98201.16;2074944;28;19936;-53
2022/07/27 01:35:34;;;;;;;;;;;;;;;30.50;48.24;98201.44;2075174;28;20394;-51
2022/07/27 01:36:34;;;;;;;;;;;;;;;30.52;48.20;98208.56;2074404;28;19929;-52
2022/07/27 01:37:37;;;;;;;;;;;;;;;30.50;48.17;98198.69;2077661;28;19929;-52
2022/07/27 01:38:38;;;;;;;;;;;;;;;30.51;48.07;98202.28;2077584;28;19933;-50
2022/07/27 01:39:39;;;;;;;;;;;;;;;30.50;48.14;98206.91;2080392;28;19925;-53
2022/07/27 01:40:40;;;;;;;;;;;;;;;30.52;48.10;98205.81;2079212;28;19932;-51
2022/07/27 01:41:41;;;;;;;;;;;;;;;30.51;48.19;98205.00;2079301;28;19943;-51
2022/07/27 01:42:42;;;;;;;;;;;;;;;30.50;48.21;98201.44;2081578;28;19925;-50
2022/07/27 01:43:44;;;;;;;;;;;;;;;30.52;48.09;98205.81;2078684;28;19928;-51
2022/07/27 01:44:44;;;;;;;;;;;;;;;30.51;48.11;98207.75;2073897;28;20496;-52
2022/07/27 01:45:46;;;;;;;;;;;;;;;30.52;48.31;98205.81;2073259;28;19928;-53
2022/07/27 01:46:47;;;;;;;;;;;;;;;30.50;48.19;98204.16;2077363;28;19929;-53
2022/07/27 01:47:48;;;;;;;;;;;;;;;30.50;48.22;98209.66;2079887;28;19929;-53
2022/07/27 01:48:49;;;;;;;;;;;;;;;30.50;48.05;98211.56;2076913;28;19933;-54
2022/07/27 01:49:50;;;;;;;;;;;;;;;30.50;48.08;98206.09;2076816;28;19929;-53
2022/07/27 01:50:51;;;;;;;;;;;;;;;30.50;47.98;98214.31;2078651;28;19929;-53
2022/07/27 01:51:52;;;;;;;;;;;;;;;30.50;48.20;98211.56;2073585;28;19931;-53
2022/07/27 01:52:54;;;;;;;;;;;;;;;30.49;48.07;98208.03;2073655;28;19929;-52
2022/07/27 01:53:56;;;;;;;;;;;;;;;30.50;48.36;98219.78;2077240;28;19968;-54
2022/07/27 01:54:57;;;;;;;;;;;;;;;30.50;48.29;98208.84;2074330;28;19928;-55
2022/07/27 01:55:58;;;;;;;;;;;;;;;30.49;48.40;98209.97;2074090;28;22181;-53
2022/07/27 01:56:59;;;;;;;;;;;;;;;30.49;48.00;98207.22;2076539;28;19929;-52
2022/07/27 01:58:02;;;;;;;;;;;;;;;30.49;48.12;98208.03;2074738;28;20737;-51
2022/07/27 01:59:04;;;;;;;;;;;;;;;30.48;48.09;98206.41;2073523;28;20453;-52
2022/07/27 02:00:06;;;;;;;;;;;;;;;30.49;48.21;98204.47;2073618;28;19940;-53
2022/07/27 02:01:08;;;;;;;;;;;;;;;30.48;47.91;98211.88;2077248;28;19928;-52
2022/07/27 02:02:08;;;;;;;;;;;;;;;30.48;48.16;98200.13;2076392;28;19940;-53
2022/07/27 02:03:11;;;;;;;;;;;;;;;30.48;48.12;98203.66;2070622;28;19928;-53
2022/07/27 02:04:11;;;;;;;;;;;;;;;30.48;48.13;98209.16;2073850;28;19976;-53
2022/07/27 02:05:13;;;;;;;;;;;;;;;30.47;48.33;98202.03;2075327;28;19935;-52
2022/07/27 02:06:13;;;;;;;;;;;;;;;30.48;48.18;98211.88;2074199;28;19932;-53
2022/07/27 02:07:15;;;;;;;;;;;;;;;30.48;48.14;98209.16;2077032;28;19971;-52
2022/07/27 02:08:17;;;;;;;;;;;;;;;30.48;47.95;98208.34;2076935;28;20472;-51
2022/07/27 02:09:19;;;;;;;;;;;;;;;30.48;47.98;98205.59;2078958;28;19928;-51
2022/07/27 02:10:20;;;;;;;;;;;;;;;30.48;48.01;98211.06;2079409;28;20019;-52
2022/07/27 02:12:40;;;;;;;;;;;;;;;30.46;48.12;98203.16;2069724;28;19936;-49
2022/07/27 02:13:42;;;;;;;;;;;;;;;30.47;48.00;98204.75;2072601;28;19967;-52
2022/07/27 02:14:44;;;;;;;;;;;;;;;30.47;47.91;98193.81;2073777;28;20043;-53
2022/07/27 02:15:44;;;;;;;;;;;;;;;30.46;48.30;98208.63;2074146;28;19936;-52
2022/07/27 02:16:46;;;;;;;;;;;;;;;30.45;48.14;98201.53;2073119;28;20063;-54
2022/07/27 02:17:47;;;;;;;;;;;;;;;30.46;48.14;98200.41;2076815;28;19933;-52
2022/07/27 02:18:48;;;;;;;;;;;;;;;30.46;48.01;98208.63;2075816;28;19932;-53
2022/07/27 02:19:49;;;;;;;;;;;;;;;30.45;48.17;98204.25;2074748;28;21037;-53
2022/07/27 02:20:50;;;;;;;;;;;;;;;30.46;48.16;98205.06;2076976;28;19933;-52
2022/07/27 02:21:51;;;;;;;;;;;;;;;30.45;47.92;98207.00;2075070;28;20915;-52
2022/07/27 02:22:53;;;;;;;;;;;;;;;30.45;47.83;98206.16;2076563;28;19935;-50
2022/07/27 02:23:54;;;;;;;;;;;;;;;30.46;47.97;98202.34;2074953;28;20555;-54
2022/07/27 02:24:56;;;;;;;;;;;;;;;30.43;48.33;98195.53;2076570;28;20442;-50
2022/07/27 02:25:57;;;;;;;;;;;;;;;30.45;48.08;98196.06;2074984;28;19928;-53
2022/07/27 02:26:58;;;;;;;;;;;;;;;30.46;47.94;98202.34;2073487;28;19929;-52
2022/07/27 02:27:59;;;;;;;;;;;;;;;30.45;48.13;98204.25;2074905;28;19929;-53
2022/07/27 02:29:00;;;;;;;;;;;;;;;30.45;48.21;98207.00;2074012;28;20075;-54
2022/07/27 02:30:01;;;;;;;;;;;;;;;30.46;48.19;98200.41;2073683;28;19929;-51
2022/07/27 02:32:21;;;;;;;;;;;;;;;30.44;48.13;98210.81;2075591;28;19933;-52
2022/07/27 02:33:22;;;;;;;;;;;;;;;30.44;48.03;98205.34;2075602;28;19929;-53
2022/07/27 02:34:24;;;;;;;;;;;;;;;30.44;48.07;98216.28;2073326;28;19929;-52
2022/07/27 02:35:24;;;;;;;;;;;;;;;30.44;48.14;98221.75;2074632;28;19925;-54
2022/07/27 02:36:27;;;;;;;;;;;;;;;30.44;47.94;98213.56;2075483;28;19941;-53
2022/07/27 02:37:28;;;;;;;;;;;;;;;30.45;48.22;98219.84;2075293;28;19963;-52
2022/07/27 02:38:30;;;;;;;;;;;;;;;30.44;48.26;98220.97;2080475;28;19928;-53
2022/07/27 02:39:31;;;;;;;;;;;;;;;30.44;47.91;98223.69;2079783;28;20618;-53
2022/07/27 02:40:33;;;;;;;;;;;;;;;30.43;48.03;98225.63;2080061;28;19933;-51
2022/07/27 02:41:34;;;;;;;;;;;;;;;30.45;47.93;98219.84;2077001;28;19929;-52
2022/07/27 02:42:35;;;;;;;;;;;;;;;30.44;48.15;98221.75;2073004;28;19939;-50
2022/07/27 02:43:36;;;;;;;;;;;;;;;30.43;48.09;98225.63;2072229;28;19936;-52
2022/07/27 02:44:37;;;;;;;;;;;;;;;30.43;48.09;98220.16;2074547;28;20478;-53
2022/07/27 02:45:38;;;;;;;;;;;;;;;30.42;47.96;98232.22;2073300;28;19928;-53
2022/07/27 02:46:39;;;;;;;;;;;;;;;30.40;48.08;98218.00;2072539;28;19928;-52
2022/07/27 02:47:40;;;;;;;;;;;;;;;30.43;47.95;98220.16;2073242;28;20442;-52
2022/07/27 02:48:41;;;;;;;;;;;;;;;30.42;47.89;98226.75;2074421;28;19935;-51
2022/07/27 02:49:42;;;;;;;;;;;;;;;30.43;48.33;98224.81;2075989;28;19928;-52
2022/07/27 02:50:44;;;;;;;;;;;;;;;30.42;48.11;98232.22;2080487;28;20581;-53
2022/07/27 02:51:44;;;;;;;;;;;;;;;30.41;47.98;98222.34;2078688;28;19933;-53
2022/07/27 02:52:46;;;;;;;;;;;;;;;30.42;48.16;98229.47;2079251;28;19955;-50
2022/07/27 02:53:46;;;;;;;;;;;;;;;30.41;48.12;98230.56;2072440;28;20523;-51
2022/07/27 02:54:49;;;;;;;;;;;;;;;30.41;48.00;98233.28;2076310;28;20015;-50
2022/07/27 02:55:50;;;;;;;;;;;;;;;30.43;48.06;98231.09;2074589;28;19956;-51
2022/07/27 02:56:52;;;;;;;;;;;;;;;30.41;48.11;98238.78;2076174;28;20813;-52
2022/07/27 02:57:52;;;;;;;;;;;;;;;30.41;48.07;98233.28;2076576;28;22347;-51
2022/07/27 02:58:54;;;;;;;;;;;;;;;30.41;48.09;98227.00;2077356;28;19933;-53
2022/07/27 02:59:55;;;;;;;;;;;;;;;30.41;47.91;98244.25;2070299;28;19936;-51
2022/07/27 03:00:56;;;;;;;;;;;;;;;30.41;48.09;98237.97;2073378;28;20036;-53
2022/07/27 03:01:56;;;;;;;;;;;;;;;30.40;47.97;98245.34;2074669;28;19936;-52
2022/07/27 03:02:58;;;;;;;;;;;;;;;30.41;48.11;98246.16;2073926;28;19928;-53
2022/07/27 03:03:59;;;;;;;;;;;;;;;30.40;47.99;98248.09;2074026;28;19932;-54
2022/07/27 03:05:00;;;;;;;;;;;;;;;30.42;47.94;98247.78;2075595;28;20045;-51
2022/07/27 03:06:02;;;;;;;;;;;;;;;30.41;47.98;98240.69;2073295;28;19947;-52
2022/07/27 03:07:02;;;;;;;;;;;;;;;30.41;47.91;98238.78;2075346;28;19929;-54
2022/07/27 03:08:04;;;;;;;;;;;;;;;30.41;47.98;98232.50;2078410;28;19951;-52
2022/07/27 03:09:05;;;;;;;;;;;;;;;30.40;48.00;98226.22;2077015;28;19933;-53
2022/07/27 03:10:08;;;;;;;;;;;;;;;30.39;48.07;98230.03;2078675;28;20157;-55
2022/07/27 03:11:09;;;;;;;;;;;;;;;30.40;48.13;98219.94;2080029;28;19929;-52
2022/07/27 03:12:11;;;;;;;;;;;;;;;30.42;48.04;98223.16;2080094;28;19929;-52
2022/07/27 03:13:11;;;;;;;;;;;;;;;30.42;48.16;98220.44;2080464;28;19932;-52
2022/07/27 03:14:13;;;;;;;;;;;;;;;30.40;48.02;98217.19;2075208;28;21017;-51
2022/07/27 03:15:13;;;;;;;;;;;;;;;30.40;47.92;98223.47;2075695;28;19935;-52
2022/07/27 03:16:15;;;;;;;;;;;;;;;30.38;48.03;98220.19;2067263;28;19928;-52
2022/07/27 03:17:15;;;;;;;;;;;;;;;30.38;47.92;98220.19;2069691;28;20391;-53
2022/07/27 03:18:17;;;;;;;;;;;;;;;30.39;47.91;98221.81;2076793;28;19932;-52
2022/07/27 03:19:18;;;;;;;;;;;;;;;30.38;48.01;98222.94;2079608;28;19933;-54
2022/07/27 03:20:19;;;;;;;;;;;;;;;30.38;48.22;98227.59;2080655;28;19935;-53
2022/07/27 03:21:20;;;;;;;;;;;;;;;30.38;48.09;98222.13;2081724;28;20275;-53
2022/07/27 03:22:21;;;;;;;;;;;;;;;30.39;48.00;98235.50;2081470;28;19939;-52
2022/07/27 03:23:23;;;;;;;;;;;;;;;30.38;47.97;98228.41;2079305;28;20021;-52
2022/07/27 03:24:24;;;;;;;;;;;;;;;30.38;47.98;98233.88;2074903;28;19933;-52
2022/07/27 03:25:26;;;;;;;;;;;;;;;30.37;47.95;98231.44;2073809;28;19994;-51
2022/07/27 03:26:29;;;;;;;;;;;;;;;30.39;47.88;98229.22;2079792;28;19936;-52
2022/07/27 03:27:29;;;;;;;;;;;;;;;30.39;47.89;98229.22;2082077;28;19929;-51
2022/07/27 03:28:31;;;;;;;;;;;;;;;30.37;48.15;98226.78;2080201;28;19925;-53
2022/07/27 03:29:32;;;;;;;;;;;;;;;30.38;48.01;98233.88;2081647;28;19995;-52
2022/07/27 03:30:33;;;;;;;;;;;;;;;30.38;47.86;98233.88;2078684;28;20516;-54
2022/07/27 03:31:34;;;;;;;;;;;;;;;30.37;48.05;98232.25;2074373;28;19928;-53
2022/07/27 03:32:35;;;;;;;;;;;;;;;30.38;47.97;98235.81;2081363;28;20497;-52
2022/07/27 03:33:36;;;;;;;;;;;;;;;30.36;48.08;98230.63;2081790;28;19933;-49
2022/07/27 03:34:37;;;;;;;;;;;;;;;30.37;48.16;98235.00;2079516;28;19932;-52
2022/07/27 03:35:38;;;;;;;;;;;;;;;30.38;48.01;98224.88;2079720;28;19932;-52
2022/07/27 03:36:40;;;;;;;;;;;;;;;30.36;47.93;98225.16;2080085;28;19935;-54
2022/07/27 03:37:40;;;;;;;;;;;;;;;30.37;48.04;98226.78;2081931;28;20660;-51
2022/07/27 03:38:42;;;;;;;;;;;;;;;30.37;48.35;98217.75;2080844;28;19935;-53
2022/07/27 03:39:42;;;;;;;;;;;;;;;30.36;48.22;98219.66;2079024;28;20779;-50
2022/07/27 03:40:45;;;;;;;;;;;;;;;30.36;48.04;98214.19;2074606;28;19928;-53
2022/07/27 03:41:46;;;;;;;;;;;;;;;30.37;48.04;98217.75;2077595;28;19979;-52
2022/07/27 03:42:47;;;;;;;;;;;;;;;30.36;47.95;98219.66;2073941;28;19928;-54
2022/07/27 03:43:48;;;;;;;;;;;;;;;30.35;48.17;98212.59;2076535;28;19956;-51
2022/07/27 03:44:50;;;;;;;;;;;;;;;30.37;48.14;98215.00;2071177;28;19932;-52
2022/07/27 03:45:51;;;;;;;;;;;;;;;30.37;48.11;98215.84;2078813;28;21843;-53
2022/07/27 03:46:52;;;;;;;;;;;;;;;30.38;47.88;98213.91;2079695;28;19949;-50
2022/07/27 03:47:53;;;;;;;;;;;;;;;30.36;48.16;98211.47;2081414;28;20837;-53
2022/07/27 03:48:56;;;;;;;;;;;;;;;30.37;47.88;98206.81;2078356;28;19936;-50
2022/07/27 03:49:56;;;;;;;;;;;;;;;30.35;48.03;98212.59;2075347;28;19933;-52
2022/07/27 03:50:58;;;;;;;;;;;;;;;30.35;48.03;98201.63;2069385;28;19933;-52
2022/07/27 03:51:58;;;;;;;;;;;;;;;30.35;48.06;98207.09;2075577;28;19933;-50
2022/07/27 03:53:00;;;;;;;;;;;;;;;30.36;47.91;98200.53;2075663;28;19939;-53
2022/07/27 03:54:02;;;;;;;;;;;;;;;30.35;48.02;98204.38;2076453;28;19936;-52
2022/07/27 03:55:04;;;;;;;;;;;;;;;30.33;47.91;98209.31;2074880;28;21059;-52
2022/07/27 03:56:06;;;;;;;;;;;;;;;30.33;47.87;98203.84;2076546;28;19924;-51
2022/07/27 03:57:07;;;;;;;;;;;;;;;30.34;48.18;98204.66;2075286;28;19932;-51
2022/07/27 03:58:08;;;;;;;;;;;;;;;30.36;48.02;98208.72;2076125;28;19925;-52
2022/07/27 03:59:10;;;;;;;;;;;;;;;30.34;48.00;98200.03;2072782;28;19935;-52
2022/07/27 04:00:11;;;;;;;;;;;;;;;30.35;48.00;98207.09;2072887;28;19939;-51
2022/07/27 04:01:12;;;;;;;;;;;;;;;30.35;48.04;98209.03;2075426;28;19925;-51
2022/07/27 04:02:13;;;;;;;;;;;;;;;30.37;48.02;98209.53;2076068;28;20828;-51
2022/07/27 04:03:15;;;;;;;;;;;;;;;30.35;48.05;98207.09;2075576;28;19929;-52
2022/07/27 04:04:15;;;;;;;;;;;;;;;30.34;48.15;98205.50;2073459;28;20837;-52
2022/07/27 04:05:17;;;;;;;;;;;;;;;30.34;48.02;98204.66;2073975;28;19933;-51
2022/07/27 04:06:17;;;;;;;;;;;;;;;30.36;48.08;98207.91;2075266;28;19936;-51
2022/07/27 04:07:19;;;;;;;;;;;;;;;30.34;48.13;98202.75;2075333;28;19929;-51
2022/07/27 04:08:20;;;;;;;;;;;;;;;30.34;47.86;98205.50;2077016;28;19929;-50
2022/07/27 04:09:21;;;;;;;;;;;;;;;30.33;48.07;98211.25;2080516;28;20614;-52
2022/07/27 04:10:22;;;;;;;;;;;;;;;30.33;48.03;98206.56;2075927;28;19936;-52
2022/07/27 04:11:25;;;;;;;;;;;;;;;30.35;48.08;98209.84;2075105;28;19935;-53
2022/07/27 04:12:25;;;;;;;;;;;;;;;30.34;48.04;98199.19;2073592;28;19932;-50
2022/07/27 04:13:27;;;;;;;;;;;;;;;30.35;48.13;98204.38;2075330;28;20670;-52
2022/07/27 04:14:27;;;;;;;;;;;;;;;30.34;48.16;98200.03;2075249;28;20855;-52
2022/07/27 04:15:30;;;;;;;;;;;;;;;30.33;47.97;98198.38;2074972;28;19928;-53
2022/07/27 04:16:30;;;;;;;;;;;;;;;30.34;48.04;98201.91;2075820;28;19928;-51
2022/07/27 04:17:32;;;;;;;;;;;;;;;30.34;48.00;98200.03;2075439;28;19935;-52
2022/07/27 04:18:32;;;;;;;;;;;;;;;30.34;48.08;98200.03;2072810;28;19936;-52
2022/07/27 04:19:34;;;;;;;;;;;;;;;30.32;48.00;98196.75;2075200;28;19971;-52
2022/07/27 04:20:34;;;;;;;;;;;;;;;30.33;48.03;98192.91;2072025;28;19964;-51
2022/07/27 04:21:36;;;;;;;;;;;;;;;30.34;47.90;98193.72;2075482;28;19947;-51
2022/07/27 04:22:37;;;;;;;;;;;;;;;30.35;47.95;98195.34;2072611;28;19939;-52
2022/07/27 04:23:38;;;;;;;;;;;;;;;30.33;48.25;98198.38;2074090;28;19929;-53
2022/07/27 04:24:39;;;;;;;;;;;;;;;30.33;47.98;98192.91;2075195;28;19925;-54
2022/07/27 04:25:40;;;;;;;;;;;;;;;30.33;47.98;98201.09;2078778;28;20016;-52
2022/07/27 04:26:42;;;;;;;;;;;;;;;30.35;48.02;98200.81;2075144;28;19935;-51
2022/07/27 04:27:44;;;;;;;;;;;;;;;30.33;48.24;98201.09;2072893;28;19963;-53
2022/07/27 04:28:45;;;;;;;;;;;;;;;30.33;48.08;98195.63;2074804;28;19940;-51
2022/07/27 04:29:46;;;;;;;;;;;;;;;30.33;47.98;98198.38;2075578;28;19933;-52
2022/07/27 04:30:48;;;;;;;;;;;;;;;30.31;48.06;98197.84;2076037;28;20976;-50
2022/07/27 04:31:49;;;;;;;;;;;;;;;30.32;47.88;98196.75;2070751;28;21196;-53
2022/07/27 04:32:51;;;;;;;;;;;;;;;30.32;47.82;98191.28;2076797;28;19932;-54
2022/07/27 04:33:51;;;;;;;;;;;;;;;30.33;47.97;98192.91;2074271;28;19933;-49
2022/07/27 04:34:53;;;;;;;;;;;;;;;30.33;47.88;98192.91;2076725;28;19925;-52
2022/07/27 04:35:53;;;;;;;;;;;;;;;30.32;48.18;98185.81;2074211;28;19933;-51
2022/07/27 04:36:55;;;;;;;;;;;;;;;30.32;48.12;98185.81;2075793;28;19929;-53
2022/07/27 04:37:55;;;;;;;;;;;;;;;30.31;48.12;98180.63;2075844;28;19931;-51
2022/07/27 04:38:57;;;;;;;;;;;;;;;30.29;48.17;98178.19;2074001;28;19939;-53
2022/07/27 04:39:57;;;;;;;;;;;;;;;30.29;47.91;98175.44;2072036;28;19929;-53
2022/07/27 04:40:59;;;;;;;;;;;;;;;30.28;48.17;98174.66;2078745;28;19929;-52
2022/07/27 04:42:01;;;;;;;;;;;;;;;30.29;47.95;98172.72;2074849;28;19933;-54
2022/07/27 04:43:03;;;;;;;;;;;;;;;30.28;47.89;98171.06;2075343;28;19928;-53
2022/07/27 04:44:04;;;;;;;;;;;;;;;30.30;48.06;98174.34;2074778;28;22224;-53
2022/07/27 04:45:06;;;;;;;;;;;;;;;30.31;47.87;98169.66;2075772;28;19935;-53
2022/07/27 04:46:07;;;;;;;;;;;;;;;30.31;48.00;98177.88;2078187;28;19940;-52
2022/07/27 04:47:08;;;;;;;;;;;;;;;30.30;47.97;98179.81;2071220;28;20446;-52
2022/07/27 04:48:09;;;;;;;;;;;;;;;30.29;48.13;98175.44;2072141;28;19937;-53
2022/07/27 04:49:10;;;;;;;;;;;;;;;30.29;48.13;98178.19;2075302;28;19936;-53
2022/07/27 04:50:11;;;;;;;;;;;;;;;30.31;48.22;98184.16;2074681;28;19933;-53
2022/07/27 04:51:13;;;;;;;;;;;;;;;30.28;48.04;98176.53;2072558;28;19929;-51
2022/07/27 04:52:14;;;;;;;;;;;;;;;30.28;48.07;98180.13;2075024;28;19925;-51
2022/07/27 04:53:16;;;;;;;;;;;;;;;30.28;48.11;98173.81;2075373;28;19940;-50
2022/07/27 04:54:16;;;;;;;;;;;;;;;30.29;48.18;98175.44;2075564;28;19971;-53
2022/07/27 04:55:18;;;;;;;;;;;;;;;30.30;48.17;98179.00;2074678;28;20598;-54
2022/07/27 04:56:18;;;;;;;;;;;;;;;30.27;47.93;98178.47;2077162;28;20751;-53
2022/07/27 04:57:22;;;;;;;;;;;;;;;30.28;48.01;98174.66;2074546;28;19939;-54
2022/07/27 04:58:23;;;;;;;;;;;;;;;30.27;48.08;98167.53;2075446;28;20024;-52
2022/07/27 04:59:24;;;;;;;;;;;;;;;30.27;48.11;98172.19;2070561;28;19929;-53
2022/07/27 05:00:25;;;;;;;;;;;;;;;30.28;48.11;98165.59;2073827;28;19959;-51
2022/07/27 05:01:26;;;;;;;;;;;;;;;30.29;48.20;98172.72;2075319;28;19928;-53
2022/07/27 05:02:30;;;;;;;;;;;;;;;30.28;48.10;98169.16;2075277;28;19972;-48
2022/07/27 05:03:31;;;;;;;;;;;;;;;30.28;47.96;98160.97;2077252;28;19929;-50
2022/07/27 05:04:32;;;;;;;;;;;;;;;30.28;48.13;98160.13;2075108;28;20310;-52
2022/07/27 05:05:33;;;;;;;;;;;;;;;30.27;48.22;98156.56;2070954;28;21073;-52
2022/07/27 05:06:34;;;;;;;;;;;;;;;30.29;47.82;98159.03;2073254;28;19933;-52
2022/07/27 05:07:35;;;;;;;;;;;;;;;30.28;48.17;98158.22;2074354;28;21116;-52
2022/07/27 05:08:37;;;;;;;;;;;;;;;30.27;48.25;98161.25;2074513;28;19928;-51
2022/07/27 05:09:37;;;;;;;;;;;;;;;30.28;47.94;98162.84;2072643;28;19933;-52
2022/07/27 05:10:39;;;;;;;;;;;;;;;30.28;47.93;98157.38;2078518;28;20502;-53
2022/07/27 05:11:39;;;;;;;;;;;;;;;30.27;47.99;98153.03;2075602;28;20322;-52
2022/07/27 05:12:42;;;;;;;;;;;;;;;30.26;47.97;98157.69;2080383;28;19933;-51
2022/07/27 05:13:43;;;;;;;;;;;;;;;30.27;48.09;98150.31;2078099;28;19933;-51
2022/07/27 05:14:44;;;;;;;;;;;;;;;30.27;48.07;98148.38;2080040;28;19933;-52
2022/07/27 05:15:45;;;;;;;;;;;;;;;30.27;48.05;98147.56;2077485;28;20341;-50
2022/07/27 05:16:46;;;;;;;;;;;;;;;30.27;47.87;98147.56;2079109;28;19933;-53
2022/07/27 05:17:47;;;;;;;;;;;;;;;30.25;47.99;98142.38;2077162;28;20489;-52
2022/07/27 05:18:48;;;;;;;;;;;;;;;30.27;48.08;98145.63;2074798;28;19939;-52
2022/07/27 05:19:49;;;;;;;;;;;;;;;30.27;47.93;98140.16;2074368;28;22819;-53
2022/07/27 05:20:51;;;;;;;;;;;;;;;30.26;48.26;98138.56;2074742;28;19929;-56
2022/07/27 05:21:51;;;;;;;;;;;;;;;30.27;47.82;98142.09;2066644;28;19929;-55
2022/07/27 05:22:53;;;;;;;;;;;;;;;30.27;47.94;98145.63;2073519;28;19936;-52
2022/07/27 05:23:53;;;;;;;;;;;;;;;30.28;48.11;98146.44;2071713;28;20840;-55